sensor_id;sensor_type;location;lat;lon;timestamp;P1;durP1;ratioP1;P2;durP2;ratioP2
6077;SDS011;3067;49.470;10.394;2022-10-26T00:00:44;7.07;;;4.03;;
6077;SDS011;3067;49.470;10.394;2022-10-26T00:03:13;12.20;;;4.00;;
6077;SDS011;3067;49.470;10.394;2022-10-26T00:05:41;7.37;;;4.43;;
6077;SDS011;3067;49.470;10.394;2022-10-26T00:08:08;7.27;;;4.80;;
6077;SDS011;3067;49.470;10.394;2022-10-26T00:10:36;4.90;;;4.40;;
6077;SDS011;3067;49.470;10.394;2022-10-26T00:13:04;4.37;;;4.00;;
6077;SDS011;3067;49.470;10.394;2022-10-26T01:01:27;5.90;;;4.03;;
6077;SDS011;3067;49.470;10.394;2022-10-26T01:03:54;6.70;;;4.07;;
6077;SDS011;3067;49.470;10.394;2022-10-26T01:06:22;7.73;;;4.30;;
6077;SDS011;3067;49.470;10.394;2022-10-26T01:08:50;8.83;;;4.00;;
6077;SDS011;3067;49.470;10.394;2022-10-26T01:11:17;4.40;;;4.00;;
6077;SDS011;3067;49.470;10.394;2022-10-26T01:13:45;9.27;;;4.87;;
6077;SDS011;3067;49.470;10.394;2022-10-26T01:19:01;7.00;;;3.77;;
6077;SDS011;3067;49.470;10.394;2022-10-26T01:21:39;5.67;;;3.97;;
6077;SDS011;3067;49.470;10.394;2022-10-26T01:27:22;5.77;;;4.27;;
6077;SDS011;3067;49.470;10.394;2022-10-26T01:29:55;7.70;;;3.60;;
6077;SDS011;3067;49.470;10.394;2022-10-26T01:32:28;5.50;;;3.70;;
6077;SDS011;3067;49.470;10.394;2022-10-26T01:34:58;4.37;;;3.87;;
6077;SDS011;3067;49.470;10.394;2022-10-26T01:37:29;3.60;;;3.30;;
6077;SDS011;3067;49.470;10.394;2022-10-26T01:39:59;3.73;;;3.43;;
6077;SDS011;3067;49.470;10.394;2022-10-26T01:42:29;6.90;;;3.30;;
6077;SDS011;3067;49.470;10.394;2022-10-26T01:44:58;7.43;;;4.50;;
6077;SDS011;3067;49.470;10.394;2022-10-26T01:47:28;5.13;;;3.77;;
6077;SDS011;3067;49.470;10.394;2022-10-26T01:49:56;9.23;;;4.07;;
6077;SDS011;3067;49.470;10.394;2022-10-26T01:52:25;4.60;;;3.67;;
6077;SDS011;3067;49.470;10.394;2022-10-26T01:54:58;4.23;;;3.47;;
6077;SDS011;3067;49.470;10.394;2022-10-26T01:57:26;5.07;;;3.20;;
6077;SDS011;3067;49.470;10.394;2022-10-26T01:59:59;5.60;;;3.13;;
6077;SDS011;3067;49.470;10.394;2022-10-26T02:05:26;7.37;;;3.50;;
6077;SDS011;3067;49.470;10.394;2022-10-26T02:07:58;5.60;;;3.50;;
6077;SDS011;3067;49.470;10.394;2022-10-26T02:10:31;5.07;;;3.77;;
6077;SDS011;3067;49.470;10.394;2022-10-26T02:13:02;4.60;;;3.70;;
6077;SDS011;3067;49.470;10.394;2022-10-26T02:15:35;9.23;;;4.20;;
6077;SDS011;3067;49.470;10.394;2022-10-26T02:18:06;4.77;;;3.90;;
6077;SDS011;3067;49.470;10.394;2022-10-26T02:20:41;9.83;;;4.50;;
6077;SDS011;3067;49.470;10.394;2022-10-26T02:23:10;7.43;;;4.50;;
6077;SDS011;3067;49.470;10.394;2022-10-26T02:25:39;6.00;;;3.93;;
6077;SDS011;3067;49.470;10.394;2022-10-26T02:28:09;5.87;;;4.70;;
6077;SDS011;3067;49.470;10.394;2022-10-26T02:30:38;11.50;;;4.23;;
6077;SDS011;3067;49.470;10.394;2022-10-26T02:33:06;12.33;;;4.37;;
6077;SDS011;3067;49.470;10.394;2022-10-26T02:35:36;4.20;;;3.73;;
6077;SDS011;3067;49.470;10.394;2022-10-26T02:38:06;6.90;;;4.43;;
6077;SDS011;3067;49.470;10.394;2022-10-26T02:40:35;8.50;;;4.20;;
6077;SDS011;3067;49.470;10.394;2022-10-26T02:43:04;9.20;;;4.13;;
6077;SDS011;3067;49.470;10.394;2022-10-26T02:45:33;4.53;;;4.17;;
6077;SDS011;3067;49.470;10.394;2022-10-26T02:48:03;5.83;;;4.43;;
6077;SDS011;3067;49.470;10.394;2022-10-26T02:50:31;7.10;;;5.40;;
6077;SDS011;3067;49.470;10.394;2022-10-26T02:53:00;9.37;;;5.07;;
6077;SDS011;3067;49.470;10.394;2022-10-26T02:55:31;10.83;;;5.53;;
6077;SDS011;3067;49.470;10.394;2022-10-26T02:58:01;12.87;;;5.13;;
6077;SDS011;3067;49.470;10.394;2022-10-26T03:00:30;8.37;;;5.87;;
6077;SDS011;3067;49.470;10.394;2022-10-26T03:02:57;6.00;;;5.20;;
6077;SDS011;3067;49.470;10.394;2022-10-26T03:05:27;6.80;;;5.37;;
6077;SDS011;3067;49.470;10.394;2022-10-26T03:07:56;6.03;;;4.90;;
6077;SDS011;3067;49.470;10.394;2022-10-26T03:10:24;8.30;;;5.20;;
6077;SDS011;3067;49.470;10.394;2022-10-26T03:12:53;6.43;;;4.97;;
6077;SDS011;3067;49.470;10.394;2022-10-26T03:15:20;7.33;;;4.60;;
6077;SDS011;3067;49.470;10.394;2022-10-26T03:17:48;9.73;;;5.20;;
6077;SDS011;3067;49.470;10.394;2022-10-26T03:20:15;6.50;;;5.13;;
6077;SDS011;3067;49.470;10.394;2022-10-26T03:22:42;15.70;;;5.60;;
6077;SDS011;3067;49.470;10.394;2022-10-26T03:25:10;6.03;;;4.40;;
6077;SDS011;3067;49.470;10.394;2022-10-26T03:27:39;8.10;;;4.83;;
6077;SDS011;3067;49.470;10.394;2022-10-26T03:30:08;6.37;;;5.20;;
6077;SDS011;3067;49.470;10.394;2022-10-26T03:32:36;5.23;;;4.70;;
6077;SDS011;3067;49.470;10.394;2022-10-26T03:35:04;8.27;;;4.63;;
6077;SDS011;3067;49.470;10.394;2022-10-26T03:37:31;7.90;;;5.10;;
6077;SDS011;3067;49.470;10.394;2022-10-26T03:39:58;5.23;;;4.80;;
6077;SDS011;3067;49.470;10.394;2022-10-26T03:42:25;7.23;;;5.23;;
6077;SDS011;3067;49.470;10.394;2022-10-26T03:44:53;6.33;;;4.53;;
6077;SDS011;3067;49.470;10.394;2022-10-26T03:47:22;5.30;;;4.70;;
6077;SDS011;3067;49.470;10.394;2022-10-26T03:49:49;7.90;;;4.93;;
6077;SDS011;3067;49.470;10.394;2022-10-26T03:52:16;5.87;;;5.20;;
6077;SDS011;3067;49.470;10.394;2022-10-26T03:54:43;9.30;;;5.30;;
6077;SDS011;3067;49.470;10.394;2022-10-26T03:57:11;7.77;;;5.23;;
6077;SDS011;3067;49.470;10.394;2022-10-26T03:59:38;5.20;;;4.80;;
6077;SDS011;3067;49.470;10.394;2022-10-26T04:02:05;6.63;;;5.03;;
6077;SDS011;3067;49.470;10.394;2022-10-26T04:04:34;4.80;;;4.50;;
6077;SDS011;3067;49.470;10.394;2022-10-26T04:07:01;5.53;;;5.00;;
6077;SDS011;3067;49.470;10.394;2022-10-26T04:09:29;6.87;;;5.20;;
6077;SDS011;3067;49.470;10.394;2022-10-26T04:11:56;8.03;;;5.47;;
6077;SDS011;3067;49.470;10.394;2022-10-26T04:14:23;5.70;;;5.20;;
6077;SDS011;3067;49.470;10.394;2022-10-26T04:16:51;5.57;;;5.07;;
6077;SDS011;3067;49.470;10.394;2022-10-26T04:19:18;7.47;;;5.03;;
6077;SDS011;3067;49.470;10.394;2022-10-26T04:21:47;8.40;;;5.00;;
6077;SDS011;3067;49.470;10.394;2022-10-26T04:24:14;12.23;;;5.10;;
6077;SDS011;3067;49.470;10.394;2022-10-26T04:26:41;11.87;;;5.33;;
6077;SDS011;3067;49.470;10.394;2022-10-26T04:29:09;7.00;;;5.20;;
6077;SDS011;3067;49.470;10.394;2022-10-26T04:31:37;6.50;;;4.73;;
6077;SDS011;3067;49.470;10.394;2022-10-26T04:34:05;6.60;;;5.63;;
6077;SDS011;3067;49.470;10.394;2022-10-26T04:36:32;11.27;;;5.57;;
6077;SDS011;3067;49.470;10.394;2022-10-26T04:39:01;7.20;;;5.47;;
6077;SDS011;3067;49.470;10.394;2022-10-26T04:41:29;5.90;;;4.80;;
6077;SDS011;3067;49.470;10.394;2022-10-26T04:43:56;9.17;;;5.20;;
6077;SDS011;3067;49.470;10.394;2022-10-26T04:46:23;9.10;;;5.10;;
6077;SDS011;3067;49.470;10.394;2022-10-26T04:48:50;6.73;;;4.23;;
6077;SDS011;3067;49.470;10.394;2022-10-26T04:51:18;3.67;;;3.30;;
6077;SDS011;3067;49.470;10.394;2022-10-26T04:53:45;4.30;;;3.90;;
6077;SDS011;3067;49.470;10.394;2022-10-26T04:56:14;7.03;;;3.97;;
6077;SDS011;3067;49.470;10.394;2022-10-26T04:58:41;4.77;;;3.70;;
6077;SDS011;3067;49.470;10.394;2022-10-26T05:01:08;3.83;;;3.63;;
6077;SDS011;3067;49.470;10.394;2022-10-26T05:03:36;5.80;;;3.57;;
6077;SDS011;3067;49.470;10.394;2022-10-26T05:06:03;3.70;;;3.40;;
6077;SDS011;3067;49.470;10.394;2022-10-26T05:08:30;3.93;;;3.63;;
6077;SDS011;3067;49.470;10.394;2022-10-26T05:10:58;4.40;;;4.10;;
6077;SDS011;3067;49.470;10.394;2022-10-26T05:13:26;12.30;;;4.40;;
6077;SDS011;3067;49.470;10.394;2022-10-26T05:15:54;4.40;;;3.50;;
6077;SDS011;3067;49.470;10.394;2022-10-26T05:18:21;3.87;;;3.43;;
6077;SDS011;3067;49.470;10.394;2022-10-26T05:20:51;6.53;;;4.20;;
6077;SDS011;3067;49.470;10.394;2022-10-26T05:23:18;5.80;;;3.90;;
6077;SDS011;3067;49.470;10.394;2022-10-26T05:25:46;7.73;;;3.90;;
6077;SDS011;3067;49.470;10.394;2022-10-26T05:28:13;4.23;;;3.43;;
6077;SDS011;3067;49.470;10.394;2022-10-26T05:30:42;3.47;;;3.20;;
6077;SDS011;3067;49.470;10.394;2022-10-26T05:33:10;4.50;;;3.17;;
6077;SDS011;3067;49.470;10.394;2022-10-26T05:35:38;4.70;;;3.10;;
6077;SDS011;3067;49.470;10.394;2022-10-26T05:38:06;6.83;;;3.00;;
6077;SDS011;3067;49.470;10.394;2022-10-26T05:40:33;7.40;;;3.63;;
6077;SDS011;3067;49.470;10.394;2022-10-26T05:43:01;5.73;;;4.13;;
6077;SDS011;3067;49.470;10.394;2022-10-26T05:45:28;10.33;;;4.13;;
6077;SDS011;3067;49.470;10.394;2022-10-26T05:47:57;12.30;;;4.00;;
6077;SDS011;3067;49.470;10.394;2022-10-26T05:50:24;4.57;;;4.17;;
6077;SDS011;3067;49.470;10.394;2022-10-26T05:52:51;8.33;;;3.50;;
6077;SDS011;3067;49.470;10.394;2022-10-26T05:55:20;6.07;;;3.70;;
6077;SDS011;3067;49.470;10.394;2022-10-26T05:57:47;3.87;;;3.47;;
6077;SDS011;3067;49.470;10.394;2022-10-26T06:00:15;6.07;;;3.40;;
6077;SDS011;3067;49.470;10.394;2022-10-26T06:02:47;10.17;;;3.40;;
6077;SDS011;3067;49.470;10.394;2022-10-26T06:05:20;6.20;;;3.60;;
6077;SDS011;3067;49.470;10.394;2022-10-26T06:07:47;6.87;;;4.10;;
6077;SDS011;3067;49.470;10.394;2022-10-26T06:10:15;6.50;;;3.40;;
6077;SDS011;3067;49.470;10.394;2022-10-26T06:12:43;3.50;;;3.20;;
6077;SDS011;3067;49.470;10.394;2022-10-26T06:15:12;3.00;;;2.80;;
6077;SDS011;3067;49.470;10.394;2022-10-26T06:17:42;4.00;;;2.77;;
6077;SDS011;3067;49.470;10.394;2022-10-26T06:20:21;3.43;;;2.70;;
6077;SDS011;3067;49.470;10.394;2022-10-26T06:22:53;3.90;;;2.80;;
6077;SDS011;3067;49.470;10.394;2022-10-26T06:25:26;2.97;;;2.80;;
6077;SDS011;3067;49.470;10.394;2022-10-26T06:27:59;3.13;;;2.93;;
6077;SDS011;3067;49.470;10.394;2022-10-26T06:30:28;2.80;;;2.60;;
6077;SDS011;3067;49.470;10.394;2022-10-26T06:32:55;4.80;;;2.77;;
6077;SDS011;3067;49.470;10.394;2022-10-26T06:35:29;3.10;;;2.90;;
6077;SDS011;3067;49.470;10.394;2022-10-26T06:37:59;5.83;;;3.20;;
6077;SDS011;3067;49.470;10.394;2022-10-26T06:40:28;9.50;;;2.80;;
6077;SDS011;3067;49.470;10.394;2022-10-26T06:42:57;8.13;;;3.33;;
6077;SDS011;3067;49.470;10.394;2022-10-26T06:45:25;3.43;;;3.13;;
6077;SDS011;3067;49.470;10.394;2022-10-26T06:47:53;2.90;;;2.70;;
6077;SDS011;3067;49.470;10.394;2022-10-26T06:50:26;6.73;;;2.80;;
6077;SDS011;3067;49.470;10.394;2022-10-26T06:52:56;6.97;;;2.70;;
6077;SDS011;3067;49.470;10.394;2022-10-26T06:55:26;5.53;;;2.73;;
6077;SDS011;3067;49.470;10.394;2022-10-26T06:57:54;5.60;;;3.10;;
6077;SDS011;3067;49.470;10.394;2022-10-26T07:00:22;2.70;;;2.30;;
6077;SDS011;3067;49.470;10.394;2022-10-26T07:02:50;4.70;;;4.30;;
6077;SDS011;3067;49.470;10.394;2022-10-26T07:05:17;5.20;;;3.70;;
6077;SDS011;3067;49.470;10.394;2022-10-26T07:07:45;7.93;;;3.30;;
6077;SDS011;3067;49.470;10.394;2022-10-26T07:10:14;4.83;;;3.10;;
6077;SDS011;3067;49.470;10.394;2022-10-26T07:12:42;3.93;;;3.20;;
6077;SDS011;3067;49.470;10.394;2022-10-26T07:15:09;5.93;;;3.30;;
6077;SDS011;3067;49.470;10.394;2022-10-26T07:17:43;5.03;;;3.17;;
6077;SDS011;3067;49.470;10.394;2022-10-26T07:20:11;12.30;;;3.80;;
6077;SDS011;3067;49.470;10.394;2022-10-26T07:22:38;4.10;;;3.80;;
6077;SDS011;3067;49.470;10.394;2022-10-26T07:25:07;3.67;;;3.37;;
6077;SDS011;3067;49.470;10.394;2022-10-26T07:27:37;5.83;;;3.47;;
6077;SDS011;3067;49.470;10.394;2022-10-26T07:30:04;3.40;;;3.10;;
6077;SDS011;3067;49.470;10.394;2022-10-26T07:32:32;6.07;;;3.37;;
6077;SDS011;3067;49.470;10.394;2022-10-26T07:34:59;3.97;;;3.60;;
6077;SDS011;3067;49.470;10.394;2022-10-26T07:37:26;5.90;;;3.40;;
6077;SDS011;3067;49.470;10.394;2022-10-26T07:39:54;4.10;;;3.20;;
6077;SDS011;3067;49.470;10.394;2022-10-26T07:42:21;8.10;;;3.23;;
6077;SDS011;3067;49.470;10.394;2022-10-26T07:44:50;5.50;;;3.17;;
6077;SDS011;3067;49.470;10.394;2022-10-26T07:47:17;13.40;;;3.80;;
6077;SDS011;3067;49.470;10.394;2022-10-26T07:49:45;3.47;;;3.00;;
6077;SDS011;3067;49.470;10.394;2022-10-26T07:52:12;3.90;;;2.93;;
6077;SDS011;3067;49.470;10.394;2022-10-26T07:54:39;5.03;;;3.20;;
6077;SDS011;3067;49.470;10.394;2022-10-26T07:57:07;2.43;;;2.30;;
6077;SDS011;3067;49.470;10.394;2022-10-26T07:59:34;4.93;;;2.47;;
6077;SDS011;3067;49.470;10.394;2022-10-26T08:02:03;8.90;;;2.63;;
6077;SDS011;3067;49.470;10.394;2022-10-26T08:04:30;2.40;;;2.10;;
6077;SDS011;3067;49.470;10.394;2022-10-26T08:06:57;7.33;;;2.40;;
6077;SDS011;3067;49.470;10.394;2022-10-26T08:09:25;5.70;;;3.20;;
6077;SDS011;3067;49.470;10.394;2022-10-26T08:11:52;6.07;;;3.07;;
6077;SDS011;3067;49.470;10.394;2022-10-26T08:14:19;4.70;;;3.53;;
6077;SDS011;3067;49.470;10.394;2022-10-26T08:16:46;7.90;;;3.90;;
6077;SDS011;3067;49.470;10.394;2022-10-26T08:19:17;3.87;;;3.10;;
6077;SDS011;3067;49.470;10.394;2022-10-26T08:21:45;3.37;;;3.07;;
6077;SDS011;3067;49.470;10.394;2022-10-26T08:24:12;4.37;;;2.97;;
6077;SDS011;3067;49.470;10.394;2022-10-26T08:26:39;5.20;;;3.00;;
6077;SDS011;3067;49.470;10.394;2022-10-26T08:29:07;2.70;;;2.50;;
6077;SDS011;3067;49.470;10.394;2022-10-26T08:31:34;4.37;;;3.20;;
6077;SDS011;3067;49.470;10.394;2022-10-26T08:34:01;3.67;;;2.63;;
6077;SDS011;3067;49.470;10.394;2022-10-26T08:36:30;3.63;;;2.77;;
6077;SDS011;3067;49.470;10.394;2022-10-26T08:38:58;5.13;;;2.70;;
6077;SDS011;3067;49.470;10.394;2022-10-26T08:41:28;5.03;;;2.83;;
6077;SDS011;3067;49.470;10.394;2022-10-26T08:44:00;2.83;;;2.47;;
6077;SDS011;3067;49.470;10.394;2022-10-26T08:46:31;3.23;;;2.20;;
6077;SDS011;3067;49.470;10.394;2022-10-26T08:49:01;2.80;;;2.17;;
6077;SDS011;3067;49.470;10.394;2022-10-26T08:51:35;6.77;;;2.40;;
6077;SDS011;3067;49.470;10.394;2022-10-26T08:54:04;2.53;;;2.43;;
6077;SDS011;3067;49.470;10.394;2022-10-26T08:56:38;4.33;;;2.90;;
6077;SDS011;3067;49.470;10.394;2022-10-26T08:59:09;5.47;;;3.03;;
6077;SDS011;3067;49.470;10.394;2022-10-26T09:01:38;4.17;;;3.30;;
6077;SDS011;3067;49.470;10.394;2022-10-26T09:04:08;2.97;;;2.70;;
6077;SDS011;3067;49.470;10.394;2022-10-26T09:06:41;3.63;;;2.90;;
6077;SDS011;3067;49.470;10.394;2022-10-26T09:09:12;2.97;;;2.77;;
6077;SDS011;3067;49.470;10.394;2022-10-26T09:11:46;3.87;;;2.47;;
6077;SDS011;3067;49.470;10.394;2022-10-26T09:14:17;3.37;;;2.83;;
6077;SDS011;3067;49.470;10.394;2022-10-26T09:16:50;3.67;;;2.70;;
6077;SDS011;3067;49.470;10.394;2022-10-26T09:22:08;10.03;;;2.50;;
6077;SDS011;3067;49.470;10.394;2022-10-26T09:24:41;2.90;;;2.53;;
6077;SDS011;3067;49.470;10.394;2022-10-26T09:27:11;3.53;;;3.07;;
6077;SDS011;3067;49.470;10.394;2022-10-26T09:29:45;3.20;;;2.90;;
6077;SDS011;3067;49.470;10.394;2022-10-26T09:32:16;2.87;;;2.67;;
6077;SDS011;3067;49.470;10.394;2022-10-26T09:34:45;2.77;;;2.57;;
6077;SDS011;3067;49.470;10.394;2022-10-26T09:37:16;4.40;;;2.60;;
6077;SDS011;3067;49.470;10.394;2022-10-26T09:39:46;2.50;;;2.30;;
6077;SDS011;3067;49.470;10.394;2022-10-26T09:42:15;8.50;;;2.60;;
6077;SDS011;3067;49.470;10.394;2022-10-26T09:44:45;3.00;;;2.47;;
6077;SDS011;3067;49.470;10.394;2022-10-26T09:47:19;4.30;;;2.37;;
6077;SDS011;3067;49.470;10.394;2022-10-26T09:49:51;4.93;;;2.27;;
6077;SDS011;3067;49.470;10.394;2022-10-26T09:52:21;4.87;;;2.50;;
6077;SDS011;3067;49.470;10.394;2022-10-26T09:54:48;4.33;;;2.40;;
6077;SDS011;3067;49.470;10.394;2022-10-26T09:57:16;5.27;;;2.23;;
6077;SDS011;3067;49.470;10.394;2022-10-26T09:59:45;3.20;;;2.90;;
6077;SDS011;3067;49.470;10.394;2022-10-26T10:04:56;6.53;;;2.30;;
6077;SDS011;3067;49.470;10.394;2022-10-26T10:07:24;4.97;;;2.60;;
6077;SDS011;3067;49.470;10.394;2022-10-26T10:10:05;3.57;;;2.10;;
6077;SDS011;3067;49.470;10.394;2022-10-26T10:12:33;3.33;;;2.37;;
6077;SDS011;3067;49.470;10.394;2022-10-26T10:15:00;5.23;;;2.47;;
6077;SDS011;3067;49.470;10.394;2022-10-26T10:17:27;4.80;;;2.57;;
6077;SDS011;3067;49.470;10.394;2022-10-26T10:19:55;4.40;;;2.10;;
6077;SDS011;3067;49.470;10.394;2022-10-26T10:22:34;2.93;;;2.30;;
6077;SDS011;3067;49.470;10.394;2022-10-26T10:25:02;2.40;;;2.20;;
6077;SDS011;3067;49.470;10.394;2022-10-26T10:27:30;7.50;;;2.20;;
6077;SDS011;3067;49.470;10.394;2022-10-26T10:32:33;7.80;;;2.57;;
6077;SDS011;3067;49.470;10.394;2022-10-26T10:35:00;2.17;;;2.00;;
6077;SDS011;3067;49.470;10.394;2022-10-26T10:37:28;3.67;;;2.20;;
6077;SDS011;3067;49.470;10.394;2022-10-26T10:39:58;3.03;;;2.10;;
6077;SDS011;3067;49.470;10.394;2022-10-26T10:42:26;3.67;;;2.13;;
6077;SDS011;3067;49.470;10.394;2022-10-26T10:44:56;3.13;;;2.20;;
6077;SDS011;3067;49.470;10.394;2022-10-26T10:47:24;11.70;;;2.07;;
6077;SDS011;3067;49.470;10.394;2022-10-26T10:49:54;4.70;;;2.20;;
6077;SDS011;3067;49.470;10.394;2022-10-26T10:52:23;4.53;;;2.13;;
6077;SDS011;3067;49.470;10.394;2022-10-26T10:54:52;4.80;;;2.33;;
6077;SDS011;3067;49.470;10.394;2022-10-26T10:57:26;6.30;;;2.43;;
6077;SDS011;3067;49.470;10.394;2022-10-26T10:59:58;9.17;;;3.03;;
6077;SDS011;3067;49.470;10.394;2022-10-26T11:02:52;8.17;;;2.03;;
6077;SDS011;3067;49.470;10.394;2022-10-26T11:05:26;5.47;;;2.60;;
6077;SDS011;3067;49.470;10.394;2022-10-26T11:08:00;5.47;;;2.10;;
6077;SDS011;3067;49.470;10.394;2022-10-26T11:10:31;7.33;;;2.03;;
6077;SDS011;3067;49.470;10.394;2022-10-26T11:13:03;3.90;;;2.33;;
6077;SDS011;3067;49.470;10.394;2022-10-26T11:15:33;4.60;;;2.50;;
6077;SDS011;3067;49.470;10.394;2022-10-26T11:18:05;10.13;;;2.23;;
6077;SDS011;3067;49.470;10.394;2022-10-26T11:20:35;7.63;;;2.40;;
6077;SDS011;3067;49.470;10.394;2022-10-26T11:23:07;5.30;;;2.50;;
6077;SDS011;3067;49.470;10.394;2022-10-26T11:25:36;3.47;;;2.20;;
6077;SDS011;3067;49.470;10.394;2022-10-26T11:28:12;5.10;;;2.57;;
6077;SDS011;3067;49.470;10.394;2022-10-26T11:30:42;9.47;;;2.73;;
6077;SDS011;3067;49.470;10.394;2022-10-26T11:33:13;6.17;;;2.40;;
6077;SDS011;3067;49.470;10.394;2022-10-26T11:35:43;11.83;;;2.30;;
6077;SDS011;3067;49.470;10.394;2022-10-26T11:38:12;10.00;;;2.60;;
6077;SDS011;3067;49.470;10.394;2022-10-26T11:40:41;5.67;;;2.40;;
6077;SDS011;3067;49.470;10.394;2022-10-26T11:43:13;2.80;;;2.47;;
6077;SDS011;3067;49.470;10.394;2022-10-26T11:45:41;6.43;;;2.50;;
6077;SDS011;3067;49.470;10.394;2022-10-26T11:48:11;12.57;;;2.37;;
6077;SDS011;3067;49.470;10.394;2022-10-26T11:50:40;9.13;;;2.80;;
6077;SDS011;3067;49.470;10.394;2022-10-26T11:53:10;5.07;;;2.50;;
6077;SDS011;3067;49.470;10.394;2022-10-26T11:55:38;8.73;;;2.23;;
6077;SDS011;3067;49.470;10.394;2022-10-26T11:58:07;5.63;;;2.70;;
6077;SDS011;3067;49.470;10.394;2022-10-26T12:00:36;8.33;;;2.50;;
6077;SDS011;3067;49.470;10.394;2022-10-26T12:03:08;3.87;;;2.10;;
6077;SDS011;3067;49.470;10.394;2022-10-26T12:05:41;6.37;;;2.30;;
6077;SDS011;3067;49.470;10.394;2022-10-26T12:08:10;10.53;;;2.70;;
6077;SDS011;3067;49.470;10.394;2022-10-26T12:10:40;7.60;;;2.30;;
6077;SDS011;3067;49.470;10.394;2022-10-26T12:13:20;6.90;;;2.40;;
6077;SDS011;3067;49.470;10.394;2022-10-26T12:15:53;6.77;;;2.50;;
6077;SDS011;3067;49.470;10.394;2022-10-26T12:18:23;4.63;;;2.40;;
6077;SDS011;3067;49.470;10.394;2022-10-26T12:20:55;8.27;;;2.77;;
6077;SDS011;3067;49.470;10.394;2022-10-26T12:23:27;6.37;;;2.33;;
6077;SDS011;3067;49.470;10.394;2022-10-26T12:28:41;8.20;;;2.23;;
6077;SDS011;3067;49.470;10.394;2022-10-26T12:33:55;3.00;;;2.20;;
6077;SDS011;3067;49.470;10.394;2022-10-26T12:39:23;2.80;;;2.03;;
6077;SDS011;3067;49.470;10.394;2022-10-26T12:41:54;8.70;;;2.77;;
6077;SDS011;3067;49.470;10.394;2022-10-26T12:44:31;6.13;;;2.40;;
6077;SDS011;3067;49.470;10.394;2022-10-26T12:46:59;4.57;;;2.47;;
6077;SDS011;3067;49.470;10.394;2022-10-26T12:52:20;8.93;;;2.10;;
6077;SDS011;3067;49.470;10.394;2022-10-26T12:55:12;7.03;;;2.20;;
6077;SDS011;3067;49.470;10.394;2022-10-26T12:57:44;7.60;;;2.10;;
6077;SDS011;3067;49.470;10.394;2022-10-26T13:00:13;8.30;;;2.23;;
6077;SDS011;3067;49.470;10.394;2022-10-26T13:02:48;3.47;;;2.10;;
6077;SDS011;3067;49.470;10.394;2022-10-26T13:05:28;9.20;;;2.10;;
6077;SDS011;3067;49.470;10.394;2022-10-26T13:08:02;5.50;;;2.00;;
6077;SDS011;3067;49.470;10.394;2022-10-26T13:10:29;2.67;;;2.00;;
6077;SDS011;3067;49.470;10.394;2022-10-26T13:12:57;8.73;;;1.80;;
6077;SDS011;3067;49.470;10.394;2022-10-26T13:15:28;5.03;;;1.80;;
6077;SDS011;3067;49.470;10.394;2022-10-26T13:17:58;13.80;;;2.43;;
6077;SDS011;3067;49.470;10.394;2022-10-26T13:20:27;2.47;;;1.60;;
6077;SDS011;3067;49.470;10.394;2022-10-26T13:22:55;2.90;;;1.53;;
6077;SDS011;3067;49.470;10.394;2022-10-26T13:25:24;9.63;;;1.80;;
6077;SDS011;3067;49.470;10.394;2022-10-26T13:28:00;5.70;;;1.70;;
6077;SDS011;3067;49.470;10.394;2022-10-26T13:33:06;2.03;;;1.80;;
6077;SDS011;3067;49.470;10.394;2022-10-26T13:35:34;6.40;;;1.87;;
6077;SDS011;3067;49.470;10.394;2022-10-26T13:38:06;4.70;;;1.80;;
6077;SDS011;3067;49.470;10.394;2022-10-26T13:40:35;6.77;;;2.10;;
6077;SDS011;3067;49.470;10.394;2022-10-26T13:43:04;4.67;;;1.97;;
6077;SDS011;3067;49.470;10.394;2022-10-26T13:45:33;6.33;;;1.93;;
6077;SDS011;3067;49.470;10.394;2022-10-26T13:48:03;5.60;;;1.50;;
6077;SDS011;3067;49.470;10.394;2022-10-26T13:50:32;2.13;;;1.33;;
6077;SDS011;3067;49.470;10.394;2022-10-26T13:53:00;4.40;;;1.60;;
6077;SDS011;3067;49.470;10.394;2022-10-26T13:55:32;7.83;;;1.80;;
6077;SDS011;3067;49.470;10.394;2022-10-26T13:58:08;6.83;;;2.00;;
6077;SDS011;3067;49.470;10.394;2022-10-26T14:00:37;3.17;;;1.70;;
6077;SDS011;3067;49.470;10.394;2022-10-26T14:03:11;6.67;;;1.60;;
6077;SDS011;3067;49.470;10.394;2022-10-26T14:05:40;6.37;;;1.90;;
6077;SDS011;3067;49.470;10.394;2022-10-26T14:08:10;5.43;;;1.60;;
6077;SDS011;3067;49.470;10.394;2022-10-26T14:10:40;3.53;;;1.70;;
6077;SDS011;3067;49.470;10.394;2022-10-26T14:13:11;8.20;;;2.00;;
6077;SDS011;3067;49.470;10.394;2022-10-26T14:15:41;10.10;;;2.30;;
6077;SDS011;3067;49.470;10.394;2022-10-26T14:18:10;3.03;;;2.00;;
6077;SDS011;3067;49.470;10.394;2022-10-26T14:20:40;3.80;;;1.97;;
6077;SDS011;3067;49.470;10.394;2022-10-26T14:23:26;7.90;;;2.00;;
6077;SDS011;3067;49.470;10.394;2022-10-26T14:25:54;3.53;;;2.10;;
6077;SDS011;3067;49.470;10.394;2022-10-26T14:28:26;5.83;;;2.60;;
6077;SDS011;3067;49.470;10.394;2022-10-26T14:31:09;8.00;;;2.43;;
6077;SDS011;3067;49.470;10.394;2022-10-26T14:33:36;4.50;;;2.50;;
6077;SDS011;3067;49.470;10.394;2022-10-26T14:36:03;1.90;;;1.80;;
6077;SDS011;3067;49.470;10.394;2022-10-26T14:38:33;3.27;;;2.23;;
6077;SDS011;3067;49.470;10.394;2022-10-26T14:41:04;10.73;;;2.70;;
6077;SDS011;3067;49.470;10.394;2022-10-26T14:43:33;7.87;;;2.87;;
6077;SDS011;3067;49.470;10.394;2022-10-26T14:46:00;6.43;;;2.30;;
6077;SDS011;3067;49.470;10.394;2022-10-26T14:48:29;7.83;;;2.50;;
6077;SDS011;3067;49.470;10.394;2022-10-26T14:50:57;5.43;;;2.20;;
6077;SDS011;3067;49.470;10.394;2022-10-26T14:53:28;5.47;;;2.43;;
6077;SDS011;3067;49.470;10.394;2022-10-26T14:55:57;5.27;;;2.40;;
6077;SDS011;3067;49.470;10.394;2022-10-26T14:58:25;3.70;;;2.00;;
6077;SDS011;3067;49.470;10.394;2022-10-26T15:03:39;5.10;;;2.53;;
6077;SDS011;3067;49.470;10.394;2022-10-26T15:09:04;9.30;;;2.17;;
6077;SDS011;3067;49.470;10.394;2022-10-26T15:11:32;6.37;;;2.57;;
6077;SDS011;3067;49.470;10.394;2022-10-26T15:13:59;5.03;;;2.40;;
6077;SDS011;3067;49.470;10.394;2022-10-26T15:16:27;6.50;;;2.80;;
6077;SDS011;3067;49.470;10.394;2022-10-26T15:18:57;3.80;;;2.77;;
6077;SDS011;3067;49.470;10.394;2022-10-26T15:21:26;4.10;;;2.20;;
6077;SDS011;3067;49.470;10.394;2022-10-26T15:23:55;3.17;;;2.50;;
6077;SDS011;3067;49.470;10.394;2022-10-26T15:26:23;6.80;;;2.43;;
6077;SDS011;3067;49.470;10.394;2022-10-26T15:28:51;10.47;;;2.47;;
6077;SDS011;3067;49.470;10.394;2022-10-26T15:31:29;2.50;;;2.30;;
6077;SDS011;3067;49.470;10.394;2022-10-26T15:34:12;6.13;;;2.20;;
6077;SDS011;3067;49.470;10.394;2022-10-26T15:36:40;15.33;;;2.50;;
6077;SDS011;3067;49.470;10.394;2022-10-26T15:39:08;6.20;;;2.50;;
6077;SDS011;3067;49.470;10.394;2022-10-26T15:41:36;8.20;;;3.07;;
6077;SDS011;3067;49.470;10.394;2022-10-26T15:44:05;2.30;;;2.10;;
6077;SDS011;3067;49.470;10.394;2022-10-26T15:46:37;7.67;;;3.30;;
6077;SDS011;3067;49.470;10.394;2022-10-26T15:49:06;3.07;;;2.10;;
6077;SDS011;3067;49.470;10.394;2022-10-26T15:51:35;6.87;;;2.20;;
6077;SDS011;3067;49.470;10.394;2022-10-26T15:54:04;5.73;;;1.90;;
6077;SDS011;3067;49.470;10.394;2022-10-26T15:56:31;9.20;;;3.03;;
6077;SDS011;3067;49.470;10.394;2022-10-26T15:58:59;10.90;;;2.17;;
6077;SDS011;3067;49.470;10.394;2022-10-26T16:01:26;3.83;;;2.37;;
6077;SDS011;3067;49.470;10.394;2022-10-26T16:03:55;6.17;;;2.10;;
6077;SDS011;3067;49.470;10.394;2022-10-26T16:06:23;6.17;;;1.70;;
6077;SDS011;3067;49.470;10.394;2022-10-26T16:08:54;2.33;;;2.07;;
6077;SDS011;3067;49.470;10.394;2022-10-26T16:11:22;6.50;;;2.13;;
6077;SDS011;3067;49.470;10.394;2022-10-26T16:13:50;2.90;;;2.60;;
6077;SDS011;3067;49.470;10.394;2022-10-26T16:16:18;12.40;;;2.83;;
6077;SDS011;3067;49.470;10.394;2022-10-26T16:18:46;7.13;;;4.13;;
6077;SDS011;3067;49.470;10.394;2022-10-26T16:21:14;7.63;;;3.00;;
6077;SDS011;3067;49.470;10.394;2022-10-26T16:23:42;12.40;;;3.10;;
6077;SDS011;3067;49.470;10.394;2022-10-26T16:26:12;7.03;;;2.43;;
6077;SDS011;3067;49.470;10.394;2022-10-26T16:28:40;14.80;;;2.50;;
6077;SDS011;3067;49.470;10.394;2022-10-26T16:31:09;6.30;;;2.50;;
6077;SDS011;3067;49.470;10.394;2022-10-26T16:33:36;2.50;;;2.30;;
6077;SDS011;3067;49.470;10.394;2022-10-26T16:36:04;10.23;;;2.63;;